| time (UTC) | temp F | wind direction | speed knots | gust knots | rain 1hr in | rain 24hr in | rain mn in | humidity % | barometer mb |
| 20260507170044 | 60 | 256 | 11.3 | 13.9 | 0.00 | 0.17 | 0.00 | 40 | 1015.3 |
| 20260507164600 | 59 | 261 | 12.2 | 14.8 | 0.00 | 0.25 | 0.00 | 45 | 1015.6 |
| 20260507163043 | 57 | 253 | 11.3 | 14.8 | 0.00 | 0.25 | 0.00 | 48 | 1015.7 |
| 20260507161547 | 56 | 251 | 11.3 | 13.9 | 0.00 | 0.25 | 0.00 | 51 | 1015.8 |
| 20260507160042 | 55 | 245 | 12.2 | 14.8 | 0.00 | 0.25 | 0.00 | 49 | 1015.7 |
| 20260507154545 | 54 | 245 | 11.3 | 16.5 | 0.00 | 0.27 | 0.00 | 52 | 1015.7 |
| 20260507153048 | 54 | 238 | 13.0 | 15.6 | 0.00 | 0.27 | 0.00 | 50 | 1015.5 |
| 20260507151544 | 54 | 244 | 11.3 | 17.4 | 0.00 | 0.27 | 0.00 | 52 | 1015.7 |
| 20260507150043 | 54 | 254 | 13.0 | 17.4 | 0.00 | 0.27 | 0.00 | 50 | 1015.9 |
| 20260507144540 | 53 | 259 | 12.2 | 18.2 | 0.00 | 0.27 | 0.00 | 53 | 1015.8 |
| 20260507143046 | 52 | 258 | 13.9 | 19.1 | 0.00 | 0.27 | 0.00 | 53 | 1015.7 |
| 20260507141552 | 50 | 259 | 13.0 | 18.2 | 0.00 | 0.27 | 0.00 | 56 | 1015.6 |
| 20260507140043 | 48 | 247 | 14.8 | 18.2 | 0.00 | 0.27 | 0.00 | 59 | 1015.7 |
| 20260507134552 | 46 | 251 | 12.2 | 16.5 | 0.00 | 0.27 | 0.00 | 64 | 1015.8 |
| 20260507133044 | 44 | 257 | 13.9 | 17.4 | 0.00 | 0.27 | 0.00 | 64 | 1015.6 |
| 20260507131543 | 43 | 254 | 14.8 | 17.4 | 0.00 | 0.27 | 0.00 | 64 | 1015.3 |
| 20260507130044 | 41 | 246 | 13.0 | 17.4 | 0.00 | 0.27 | 0.00 | 66 | 1015.2 |
| 20260507124541 | 40 | 250 | 13.0 | 17.4 | 0.00 | 0.27 | 0.00 | 66 | 1015.0 |
| 20260507123039 | 39 | 253 | 13.9 | 16.5 | 0.00 | 0.27 | 0.00 | 67 | 1015.1 |
| 20260507121540 | 38 | 252 | 14.8 | 17.4 | 0.00 | 0.27 | 0.00 | 67 | 1014.8 |
| 20260507120046 | 37 | 246 | 14.8 | 17.4 | 0.00 | 0.27 | 0.00 | 68 | 1014.7 |
| 20260507114540 | 37 | 250 | 15.6 | 19.1 | 0.00 | 0.27 | 0.00 | 69 | 1014.6 |
| 20260507113040 | 37 | 244 | 14.8 | 17.4 | 0.00 | 0.27 | 0.00 | 71 | 1014.6 |
| 20260507111548 | 37 | 247 | 13.9 | 17.4 | 0.00 | 0.27 | 0.00 | 71 | 1014.5 |
| 20260507110059 | 36 | 241 | 13.9 | 17.4 | 0.00 | 0.27 | 0.00 | 71 | 1014.6 |
| 20260507104545 | 36 | 232 | 13.0 | 16.5 | 0.00 | 0.27 | 0.00 | 71 | 1014.6 |
| 20260507103041 | 36 | 244 | 13.0 | 17.4 | 0.00 | 0.27 | 0.00 | 71 | 1014.9 |
| 20260507101549 | 36 | 253 | 13.9 | 17.4 | 0.00 | 0.27 | 0.00 | 71 | 1015.0 |
| 20260507100040 | 36 | 238 | 13.9 | 16.5 | 0.00 | 0.27 | 0.00 | 73 | 1015.0 |
| 20260507094545 | 36 | 234 | 13.9 | 16.5 | 0.00 | 0.27 | 0.00 | 73 | 1015.1 |
| 20260507093047 | 37 | 240 | 13.9 | 17.4 | 0.00 | 0.27 | 0.00 | 72 | 1015.1 |
| 20260507091552 | 37 | 232 | 13.9 | 17.4 | 0.00 | 0.27 | 0.00 | 72 | 1015.1 |
| 20260507090055 | 37 | 238 | 13.9 | 17.4 | 0.00 | 0.27 | 0.00 | 73 | 1015.0 |
| 20260507084542 | 37 | 248 | 13.9 | 17.4 | 0.00 | 0.27 | 0.00 | 74 | 1015.1 |
| 20260507083043 | 37 | 238 | 14.8 | 19.1 | 0.00 | 0.27 | 0.00 | 75 | 1015.2 |
| 20260507081544 | 37 | 242 | 13.9 | 18.2 | 0.00 | 0.27 | 0.00 | 75 | 1015.3 |
| 20260507080040 | 37 | 240 | 15.6 | 19.1 | 0.00 | 0.27 | 0.00 | 76 | 1015.5 |
| 20260507074544 | 36 | 241 | 13.0 | 16.5 | 0.00 | 0.27 | 0.00 | 80 | 1015.6 |
| 20260507073041 | 35 | 238 | 13.9 | 18.2 | 0.00 | 0.27 | 0.00 | 82 | 1015.8 |
| 20260507071538 | 34 | 236 | 12.2 | 15.6 | 0.00 | 0.27 | 0.00 | 84 | 1015.9 |
| 20260507070057 | 34 | 240 | 11.3 | 13.9 | 0.00 | 0.27 | 0.00 | 85 | 1016.0 |
| 20260507064541 | 34 | 240 | 13.0 | 16.5 | 0.00 | 0.27 | 0.00 | 86 | 1016.2 |
| 20260507063039 | 33 | 229 | 12.2 | 14.8 | 0.00 | 0.27 | 0.00 | 86 | 1016.2 |
| 20260507061540 | 33 | 227 | 10.4 | 13.0 | 0.00 | 0.27 | 0.00 | 86 | 1016.5 |
| 20260507054547 | 33 | 239 | 10.4 | 12.2 | 0.00 | 0.27 | 0.27 | 84 | 1016.7 |
| 20260507053050 | 33 | 248 | 9.6 | 13.0 | 0.00 | 0.27 | 0.27 | 84 | 1016.8 |
| 20260507051541 | 34 | 242 | 9.6 | 12.2 | 0.00 | 0.27 | 0.27 | 83 | 1017.0 |
| 20260507050046 | 34 | 233 | 9.6 | 12.2 | 0.00 | 0.27 | 0.27 | 83 | 1017.4 |
| 20260507044547 | 34 | 235 | 6.1 | 8.7 | 0.00 | 0.27 | 0.27 | 84 | 1017.6 |
| 20260507043043 | 34 | 225 | 6.1 | 7.8 | 0.00 | 0.27 | 0.27 | 83 | 1017.8 |
| 20260507041543 | 34 | 214 | 5.2 | 7.0 | 0.00 | 0.27 | 0.27 | 83 | 1017.9 |
| 20260507040049 | 34 | 217 | 5.2 | 7.0 | 0.00 | 0.27 | 0.27 | 83 | 1018.0 |
| 20260507034554 | 34 | 220 | 3.5 | 5.2 | 0.00 | 0.27 | 0.27 | 81 | 1018.2 |
| 20260507033046 | 35 | 225 | 3.5 | 4.3 | 0.00 | 0.27 | 0.27 | 80 | 1018.2 |
| 20260507031544 | 35 | 217 | 3.5 | 4.3 | 0.00 | 0.27 | 0.27 | 79 | 1018.2 |
| 20260507030044 | 36 | 207 | 2.6 | 3.5 | 0.00 | 0.27 | 0.27 | 78 | 1018.2 |
| 20260507024552 | 37 | 205 | 2.6 | 4.3 | 0.00 | 0.28 | 0.27 | 77 | 1018.1 |
| 20260507023037 | 37 | 192 | 2.6 | 4.3 | 0.00 | 0.28 | 0.27 | 76 | 1018.0 |
| 20260507021548 | 38 | 210 | 2.6 | 4.3 | 0.00 | 0.28 | 0.27 | 75 | 1018.0 |
| 20260507020039 | 39 | 217 | 3.5 | 6.1 | 0.00 | 0.28 | 0.27 | 74 | 1017.8 |
| 20260507014551 | 40 | 213 | 5.2 | 7.8 | 0.00 | 0.28 | 0.27 | 72 | 1017.7 |
| 20260507013038 | 40 | 224 | 6.1 | 10.4 | 0.00 | 0.28 | 0.27 | 69 | 1017.7 |
| 20260507011546 | 41 | 227 | 7.0 | 13.0 | 0.00 | 0.28 | 0.27 | 68 | 1017.8 |
| 20260507010055 | 42 | 231 | 7.0 | 13.0 | 0.00 | 0.28 | 0.27 | 67 | 1017.8 |
| 20260507004543 | 42 | 205 | 8.7 | 12.2 | 0.00 | 0.29 | 0.27 | 66 | 1017.9 |
| 20260507003044 | 42 | 234 | 6.1 | 12.2 | 0.00 | 0.29 | 0.27 | 66 | 1018.1 |
| 20260507001551 | 43 | 225 | 7.0 | 10.4 | 0.00 | 0.29 | 0.27 | 65 | 1018.2 |
| 20260507000043 | 43 | 217 | 6.1 | 10.4 | 0.00 | 0.29 | 0.27 | 67 | 1018.4 |
| 20260506234548 | 43 | 250 | 6.1 | 11.3 | 0.00 | 0.31 | 0.27 | 67 | 1018.4 |
| 20260506233058 | 43 | 229 | 5.2 | 9.6 | 0.00 | 0.31 | 0.27 | 67 | 1018.5 |
| 20260506231545 | 43 | 229 | 8.7 | 13.0 | 0.00 | 0.31 | 0.27 | 69 | 1018.3 |
| 20260506230047 | 43 | 213 | 7.8 | 14.8 | 0.00 | 0.31 | 0.27 | 69 | 1018.4 |
| 20260506224541 | 43 | 194 | 7.8 | 13.9 | 0.00 | 0.33 | 0.27 | 71 | 1018.5 |
| 20260506223045 | 43 | 259 | 8.7 | 13.9 | 0.00 | 0.33 | 0.27 | 70 | 1018.6 |
| 20260506221547 | 42 | 249 | 8.7 | 13.0 | 0.00 | 0.33 | 0.27 | 75 | 1018.8 |
| 20260506220049 | 41 | 234 | 8.7 | 11.3 | 0.00 | 0.33 | 0.27 | 72 | 1018.9 |
| 20260506214544 | 41 | 243 | 6.1 | 10.4 | 0.00 | 0.34 | 0.27 | 73 | 1019.2 |
| 20260506213043 | 42 | 238 | 7.8 | 13.0 | 0.00 | 0.34 | 0.27 | 76 | 1019.2 |
| 20260506211548 | 40 | 239 | 5.2 | 10.4 | 0.00 | 0.34 | 0.27 | 75 | 1019.4 |
| 20260506210043 | 40 | 281 | 1.7 | 7.0 | 0.00 | 0.34 | 0.27 | 72 | 1019.5 |
| 20260506204548 | 41 | 292 | 4.3 | 7.0 | 0.00 | 0.37 | 0.27 | 70 | 1019.7 |
| 20260506203045 | 42 | 242 | 3.5 | 8.7 | 0.00 | 0.37 | 0.27 | 70 | 1019.9 |
| 20260506201545 | 41 | 209 | 2.6 | 7.0 | 0.00 | 0.37 | 0.27 | 76 | 1020.0 |
| 20260506200049 | 40 | 245 | 1.7 | 4.3 | 0.00 | 0.37 | 0.27 | 77 | 1020.1 |
| 20260506194544 | 39 | 190 | 1.7 | 5.2 | 0.01 | 0.38 | 0.27 | 80 | 1020.3 |
| 20260506193038 | 38 | 119 | 0.9 | 5.2 | 0.03 | 0.38 | 0.27 | 82 | 1020.5 |
| 20260506191545 | 38 | 272 | 0.9 | 3.5 | 0.05 | 0.38 | 0.27 | 83 | 1020.6 |
| 20260506190043 | 38 | 55 | 2.6 | 5.2 | 0.07 | 0.37 | 0.26 | 83 | 1020.8 |
| 20260506184546 | 39 | 355 | 1.7 | 6.1 | 0.08 | 0.38 | 0.25 | 85 | 1020.8 |
| 20260506183045 | 38 | 0 | 0.9 | 6.1 | 0.09 | 0.37 | 0.24 | 87 | 1020.9 |
| 20260506181544 | 38 | 22 | 2.6 | 7.8 | 0.09 | 0.34 | 0.22 | 89 | 1020.9 |
| 20260506180048 | 37 | 16 | 4.3 | 7.8 | 0.08 | 0.32 | 0.19 | 91 | 1021.0 |
| 20260506174554 | 36 | 5 | 6.1 | 8.7 | 0.08 | 0.30 | 0.17 | 92 | 1020.9 |
| 20260506173046 | 35 | 5 | 3.5 | 8.7 | 0.08 | 0.28 | 0.14 | 92 | 1020.8 |
| 20260506171540 | 35 | 24 | 2.6 | 8.7 | 0.08 | 0.25 | 0.12 | 93 | 1020.7 |